Vliegveldwaarnemingen Nederland - (AUTO) METAR

Luchtvaartmeteorologische informatie voor operationeel gebruik en vluchtvoorbereiding is beschikbaar op www.luchtvaartmeteo.nl.

ZCZC
SA200625 EHKD     DE KOOY/DE KOOY   NLD   1 m.
METAR EHKD 200625Z AUTO 17004KT 9999 OVC360 01/M00 Q1018
BLU 21003KT CAVOK=

ZCZC
SA200625 EHFD     F3-FB-1   NLD   50 m.
METAR EHFD 200625Z AUTO 12007KT 9999 SCT028/// BKN033/// BKN041///
M27/M27 Q1017 W///H///=

ZCZC
SA200625 EHAM     AMSTERDAM/SCHIPHOL   NLD   -3 m.
METAR EHAM 200625Z 14002KT 9999 MIFG NSC M01/M01 Q1018 NOSIG=

ZCZC
SA200625 EHVL     VLIELAND   NLD   10 m.
METAR EHVL 200625Z AUTO 15005KT 9999 NCD 02/02 Q1018 BLU=

ZCZC
SA200625 EHJR     K13-A   NLD   37 m.
METAR EHJR 200625Z AUTO 16014KT //// // ///////// 08/M00 Q1017 RE//
W12/H12=

ZCZC
SA200625 EHLE     LELYSTAD/LELYSTAD   NLD   -3 m.
METAR EHLE 200625Z AUTO 13003KT 1900 // BKN023 OVC026 M00/M00 Q1019
RE// BECMG 0400 FZFG=

ZCZC
SA200625 EHLW     LEEUWARDEN/LEEUWARDEN   NLD   1 m.
METAR EHLW 200625Z AUTO 20001KT 0300 FZFG OVC000 M00/M00 Q1018 RED=

ZCZC
SA200625 EHDL     ARNHEM/DEELEN   NLD   48 m.
METAR EHDL 200625Z AUTO VRB02KT 4300 BR NCD M02/M02 Q1018 GRN=

ZCZC
SA200625 EHGG     GRONINGEN/EELDE   NLD   5 m.
METAR EHGG 200625Z AUTO 18002KT 0900 R23/1300U FZFG OVC000 M03/M04
Q1019 TEMPO 0400=

ZCZC
SA200625 EHSC     LICHTEILAND GOEREE   NLD   22 m.
METAR EHSC 200625Z AUTO 16013KT 9999 ///////// 06/01 Q1017 W11/H9=

ZCZC
SA200625 EHSA     EURO PLATFORM   NLD   19 m.
METAR EHSA 200625Z AUTO 14013KT 9999 ///////// 07/01 Q1017 W10/H10=

ZCZC
SA200625 EHWO     WOENSDRECHT/WOENSDRECHT   NLD   19 m.
METAR EHWO 200625Z AUTO 12003KT 9999 NCD M01/M02 Q1018
BLU 11003KT CAVOK=

ZCZC
SA200625 EHRD     ROTTERDAM/THE HAGUE AIRPORT   NLD   -5 m.
METAR EHRD 200625Z AUTO 09003KT 070V130 9000 NCD M02/M02 Q1018 NOSIG=

ZCZC
SA200625 EHGR     GILZE-RIJEN/GILZE-RIJEN   NLD   14 m.
METAR EHGR 200625Z AUTO VRB02KT 4600 BR NCD M02/M03 Q1018 GRN=

ZCZC
SA200625 EHEH     EINDHOVEN/EINDHOVEN   NLD   22 m.
METAR EHEH 200625Z AUTO 14003KT 100V230 7000 BR FEW028 M02/M02 Q1018
WHT VRB03KT CAVOK TEMPO 0500 FZFG=

ZCZC
SA200625 EHVK     VOLKEL/VOLKEL   NLD   21 m.
METAR EHVK 200625Z AUTO 17001KT 1100 BR NCD M02/M02 Q1019 AMB=

ZCZC
SA200625 EHBK     MAASTRICHT/MAASTRICHT-AACHEN   NLD   114 m.
METAR EHBK 200625Z AUTO 10005KT 9999 NCD M00/M02 Q1018 TEMPO 7000=

ZCZC
SA200625 EHFZ     F16-A   NLD   43 m.
METAR EHFZ 200625Z AUTO 16003KT 120V190 9999 FEW029 08/03 Q1017
W///H///=

ZCZC
SA200625 EHKV     K14-FA-1C   NLD   41 m.
METAR EHKV 200625Z AUTO 16012KT 9999 NSC 09/01 Q1017 W///H///=

ZCZC
SA200625 EHMG     L9-FF-1   NLD   44 m.
METAR EHMG 200625Z AUTO 18007KT 9999 NSC 08/04 Q1019 W///H///=

ZCZC
SA200625 EHMA     AWG-1   NLD   40 m.
METAR EHMA 200625Z AUTO 20007KT 9999 NSC 04/04 Q1018 W///H///=

ZCZC
SA200625 EHDV     D15-FA-1   NLD   42 m.
METAR EHDV 200625Z AUTO 13013KT 9999 SCT038/// BKN042/// 08/03 Q1016
W///H///=

ZCZC
SA200625 EHAK     A12-CPP   NLD   48 m.
METAR EHAK 200625Z AUTO 17009KT 9999 FEW023/// BKN047/// 08/01 Q1017
W///H///=

ZCZC
SA200625 EHQE     HOORN-A   NLD   50 m.
METAR EHQE 200625Z AUTO 14012KT 9999 NCD 08/01 Q1017 W///H///=

ZCZC
SA200625 EHJA     J6-A   NLD   45 m.
METAR EHJA 200625Z AUTO 14010KT 9999 FEW031/// 08/01 Q1017 W///H///=

ZCZC
SA200625 EHPG     P11-B   NLD   41 m.
METAR EHPG 200625Z AUTO 19015KT 100V230 9999 NSC 07/01 Q1017
W///H///=

ZCZC
SA200625 EHHW     BUITENGAATS/BG-OHVS2      42 m.
METAR EHHW 200625Z AUTO 23002KT 9999 NSC 09/02 Q1018 W///H///=

ZCZC
SA200625 EHFS     VLISSINGEN AWS   NLD   8 m.
METAR EHFS 200625Z AUTO 16009KT 9999 NCD 04/01 Q1017 W///H///=

20/11/2019 07.45 uur LT